createdAt,value
2018-05-19T00:02:09.798Z,16.67
2018-05-19T00:04:38.220Z,18.43
2018-05-19T00:07:05.936Z,17.97
2018-05-19T00:09:34.364Z,16.50
2018-05-19T00:12:02.063Z,18.97
2018-05-19T00:14:30.310Z,18.90
2018-05-19T00:16:58.003Z,16.93
2018-05-19T00:19:26.438Z,16.83
2018-05-19T00:21:54.126Z,18.10
2018-05-19T00:24:21.803Z,17.87
2018-05-19T00:26:50.285Z,17.67
2018-05-19T00:29:17.937Z,18.03
2018-05-19T00:31:45.625Z,16.83
2018-05-19T00:34:14.054Z,18.07
2018-05-19T00:36:41.746Z,19.20
2018-05-19T00:39:09.416Z,17.17
2018-05-19T00:41:37.865Z,18.23
2018-05-19T00:44:05.644Z,17.20
2018-05-19T00:46:33.319Z,19.87
2018-05-19T00:49:03.116Z,19.00
2018-05-19T00:51:30.808Z,17.13
2018-05-19T00:53:59.239Z,18.73
2018-05-19T00:56:26.943Z,19.23
2018-05-19T00:58:55.376Z,19.10
2018-05-19T01:01:23.078Z,19.70
2018-05-19T01:03:51.515Z,17.23
2018-05-19T01:06:19.218Z,18.27
2018-05-19T01:08:47.646Z,18.87
2018-05-19T01:11:15.342Z,19.47
2018-05-19T01:13:43.016Z,19.10
2018-05-19T01:16:10.728Z,19.10
2018-05-19T01:18:38.399Z,19.77
2018-05-19T01:21:06.402Z,20.47
2018-05-19T01:23:34.095Z,19.33
2018-05-19T01:26:02.592Z,20.97
2018-05-19T01:28:31.007Z,18.47
2018-05-19T01:30:58.683Z,20.43
2018-05-19T01:33:26.370Z,21.17
2018-05-19T01:35:54.841Z,19.63
2018-05-19T01:38:22.574Z,18.17
2018-05-19T01:40:50.228Z,20.63
2018-05-19T01:43:17.926Z,20.43
2018-05-19T01:45:46.358Z,18.80
2018-05-19T01:48:14.047Z,21.20
2018-05-19T01:50:41.773Z,18.77
2018-05-19T01:53:09.462Z,20.00
2018-05-19T01:55:37.141Z,18.93
2018-05-19T01:58:04.835Z,20.80
2018-05-19T02:00:32.522Z,18.90
2018-05-19T02:03:01.452Z,18.63
2018-05-19T02:05:29.123Z,20.10
2018-05-19T02:07:56.809Z,20.40
2018-05-19T02:10:24.492Z,19.53
2018-05-19T02:12:52.178Z,20.17
2018-05-19T02:15:19.849Z,17.03
2018-05-19T02:17:47.532Z,20.33
2018-05-19T02:20:15.195Z,19.70
2018-05-19T02:22:43.665Z,23.50
2018-05-19T02:25:11.338Z,22.07
2018-05-19T02:27:39.798Z,20.97
2018-05-19T02:30:07.452Z,20.33
2018-05-19T02:32:35.160Z,20.53
2018-05-19T02:35:03.689Z,22.23
2018-05-19T02:37:32.563Z,19.40
2018-05-19T02:40:01.286Z,20.00
2018-05-19T02:42:28.955Z,22.37
2018-05-19T02:44:56.650Z,19.50
2018-05-19T02:47:24.314Z,21.77
2018-05-19T02:49:52.006Z,18.60
2018-05-19T02:52:19.671Z,22.00
2018-05-19T02:54:47.391Z,22.60
2018-05-19T02:57:15.059Z,19.20
2018-05-19T02:59:42.785Z,19.37
2018-05-19T03:02:10.454Z,22.40
2018-05-19T03:04:38.137Z,19.77
2018-05-19T03:07:06.566Z,20.90
2018-05-19T03:09:34.256Z,20.97
2018-05-19T03:12:02.679Z,19.40
2018-05-19T03:14:31.288Z,18.90
2018-05-19T03:16:58.970Z,18.57
2018-05-19T03:19:26.667Z,18.57
2018-05-19T03:21:54.334Z,19.10
2018-05-19T03:24:22.038Z,19.33
2018-05-19T03:26:49.702Z,20.00
2018-05-19T03:29:17.385Z,20.50
2018-05-19T03:31:45.051Z,23.83
2018-05-19T03:34:12.768Z,20.60
2018-05-19T03:36:40.440Z,20.50
2018-05-19T03:39:08.124Z,19.80
2018-05-19T03:41:35.790Z,19.57
2018-05-19T03:44:03.467Z,22.23
2018-05-19T03:46:31.898Z,21.30
2018-05-19T03:49:00.284Z,22.40
2018-05-19T03:51:27.946Z,21.30
2018-05-19T03:53:55.731Z,23.67
2018-05-19T03:56:23.402Z,21.53
2018-05-19T03:59:03.628Z,19.67
2018-05-19T04:01:43.242Z,21.00
2018-05-19T04:04:10.915Z,21.10
2018-05-19T04:06:38.590Z,22.57
2018-05-19T04:09:06.250Z,21.17
2018-05-19T04:11:33.965Z,23.57
2018-05-19T04:14:03.074Z,20.43
2018-05-19T04:16:32.667Z,19.77
2018-05-19T04:19:02.076Z,21.20
2018-05-19T04:21:30.189Z,22.80
2018-05-19T04:23:57.874Z,23.53
2018-05-19T04:26:25.565Z,21.97
2018-05-19T04:28:53.997Z,21.23
2018-05-19T04:31:21.702Z,21.90
2018-05-19T04:33:50.131Z,21.87
2018-05-19T04:36:17.823Z,23.10
2018-05-19T04:38:45.490Z,21.73
2018-05-19T04:41:13.208Z,22.30
2018-05-19T04:43:40.865Z,22.60
2018-05-19T04:46:08.580Z,21.60
2018-05-19T04:48:37.007Z,21.20
2018-05-19T04:51:04.701Z,20.40
2018-05-19T04:53:32.370Z,20.47
2018-05-19T04:56:01.057Z,21.13
2018-05-19T04:58:28.704Z,20.27
2018-05-19T05:00:56.389Z,23.37
2018-05-19T05:03:24.812Z,21.43
2018-05-19T05:05:52.502Z,22.83
2018-05-19T05:08:20.171Z,22.70
2018-05-19T05:10:47.860Z,24.80
2018-05-19T05:13:16.296Z,22.00
2018-05-19T05:15:43.959Z,25.90
2018-05-19T05:18:11.655Z,24.83
2018-05-19T05:20:40.082Z,25.13
2018-05-19T05:23:07.767Z,25.20
2018-05-19T05:25:35.437Z,24.60
2018-05-19T05:28:03.113Z,26.37
2018-05-19T05:30:30.773Z,23.90
2018-05-19T05:32:58.462Z,23.07
2018-05-19T05:35:26.907Z,25.83
2018-05-19T05:37:54.594Z,24.20
2018-05-19T05:40:23.027Z,24.30
2018-05-19T05:42:50.719Z,24.20
2018-05-19T05:45:18.382Z,25.70
2018-05-19T05:47:46.063Z,26.27
2018-05-19T05:50:14.557Z,25.73
2018-05-19T05:52:42.191Z,24.97
2018-05-19T05:55:09.893Z,25.77
2018-05-19T05:57:37.594Z,27.40
2018-05-19T06:00:05.532Z,28.73
2018-05-19T06:02:33.232Z,24.37
2018-05-19T06:05:00.898Z,26.33
2018-05-19T06:07:28.606Z,25.50
2018-05-19T06:09:56.274Z,24.70
2018-05-19T06:12:24.023Z,28.40
2018-05-19T06:14:51.672Z,27.20
2018-05-19T06:17:20.127Z,24.63
2018-05-19T06:19:47.793Z,27.20
2018-05-19T06:22:15.523Z,26.73
2018-05-19T06:24:43.206Z,28.00
2018-05-19T06:27:10.889Z,26.30
2018-05-19T06:29:39.345Z,26.37
2018-05-19T06:32:07.057Z,25.40
2018-05-19T06:34:34.738Z,25.03
2018-05-19T06:37:02.414Z,29.73
2018-05-19T06:39:31.222Z,27.67
2018-05-19T06:41:58.924Z,27.90
2018-05-19T06:44:27.398Z,27.80
2018-05-19T06:46:55.078Z,29.30
2018-05-19T06:49:22.769Z,27.07
2018-05-19T06:51:50.441Z,26.63
2018-05-19T06:54:18.138Z,25.10
2018-05-19T06:56:46.555Z,24.50
2018-05-19T06:59:14.245Z,25.60
2018-05-19T07:01:41.919Z,26.23
2018-05-19T07:04:09.609Z,24.40
2018-05-19T07:06:37.282Z,25.63
2018-05-19T07:09:04.981Z,26.07
2018-05-19T07:11:32.647Z,25.43
2018-05-19T07:14:00.380Z,25.53
2018-05-19T07:16:28.051Z,24.80
2018-05-19T07:18:55.966Z,25.47
2018-05-19T07:21:23.635Z,26.27
2018-05-19T07:23:52.089Z,26.13
2018-05-19T07:26:19.761Z,23.87
2018-05-19T07:28:47.446Z,23.20
2018-05-19T07:31:15.879Z,23.73
2018-05-19T07:33:43.574Z,24.43
2018-05-19T07:36:12.351Z,26.90
2018-05-19T07:38:40.074Z,24.57
2018-05-19T07:41:07.742Z,25.40
2018-05-19T07:43:35.458Z,24.47
2018-05-19T07:46:03.142Z,21.77
2018-05-19T07:48:30.792Z,20.40
2018-05-19T07:50:58.482Z,21.33
2018-05-19T07:53:26.190Z,21.37
2018-05-19T07:55:53.891Z,20.43
2018-05-19T07:58:21.581Z,20.53
2018-05-19T08:00:49.640Z,20.10
2018-05-19T08:03:18.454Z,19.87
2018-05-19T08:05:46.221Z,19.70
2018-05-19T08:08:13.895Z,19.77
2018-05-19T08:10:41.765Z,20.03
2018-05-19T08:13:10.235Z,19.50
2018-05-19T08:15:38.302Z,18.07
2018-05-19T08:18:06.755Z,20.53
2018-05-19T08:20:34.437Z,17.93
2018-05-19T08:23:02.110Z,19.83
2018-05-19T08:25:32.411Z,19.70
2018-05-19T08:28:01.393Z,16.63
2018-05-19T08:30:29.119Z,17.13
2018-05-19T08:32:56.808Z,17.77
2018-05-19T08:35:24.500Z,18.70
2018-05-19T08:37:52.157Z,20.30
2018-05-19T08:40:19.853Z,17.67
2018-05-19T08:42:48.389Z,16.47
2018-05-19T08:45:16.092Z,18.37
2018-05-19T08:47:44.558Z,17.30
2018-05-19T08:50:12.267Z,16.27
2018-05-19T08:52:40.191Z,17.30
2018-05-19T08:55:07.879Z,16.23
2018-05-19T08:57:35.591Z,16.00
2018-05-19T09:00:04.222Z,15.60
2018-05-19T09:02:34.367Z,14.83
2018-05-19T09:05:02.141Z,13.60
2018-05-19T09:07:31.748Z,13.80
2018-05-19T09:09:59.467Z,13.00
2018-05-19T09:12:29.057Z,13.70
2018-05-19T09:14:56.768Z,11.33
2018-05-19T09:17:24.463Z,9.87
2018-05-19T09:19:52.134Z,12.10
2018-05-19T09:22:19.830Z,13.00
2018-05-19T09:24:48.267Z,14.03
2018-05-19T09:27:16.028Z,12.27
2018-05-19T09:29:44.233Z,12.43
2018-05-19T09:32:12.692Z,12.47
2018-05-19T09:34:40.401Z,13.07
2018-05-19T09:37:08.094Z,14.30
2018-05-19T09:39:35.850Z,13.10
2018-05-19T09:42:04.404Z,13.40
2018-05-19T09:44:32.089Z,12.63
2018-05-19T09:47:01.903Z,12.43
2018-05-19T09:49:30.228Z,14.00
2018-05-19T09:51:57.931Z,11.70
2018-05-19T09:54:25.601Z,12.80
2018-05-19T09:56:53.300Z,10.90
2018-05-19T09:59:20.981Z,11.80
2018-05-19T10:01:48.709Z,10.40
2018-05-19T10:04:16.386Z,11.33
2018-05-19T10:06:44.118Z,11.57
2018-05-19T10:09:11.800Z,12.33
2018-05-19T10:11:39.525Z,11.27
2018-05-19T10:14:07.198Z,11.77
2018-05-19T10:16:34.913Z,10.67
2018-05-19T10:19:02.590Z,10.60
2018-05-19T10:21:32.262Z,11.03
2018-05-19T10:23:59.937Z,9.50
2018-05-19T10:26:27.619Z,10.87
2018-05-19T10:28:56.080Z,9.67
2018-05-19T10:31:23.781Z,8.97
2018-05-19T10:33:51.467Z,9.50
2018-05-19T10:36:19.140Z,9.30
2018-05-19T10:38:46.849Z,8.07
2018-05-19T10:41:15.278Z,8.70
2018-05-19T10:43:42.965Z,9.10
2018-05-19T10:46:10.645Z,7.90
2018-05-19T10:48:39.257Z,8.33
2018-05-19T10:51:06.968Z,8.80
2018-05-19T10:53:34.663Z,8.17
2018-05-19T10:56:03.324Z,5.90
2018-05-19T10:58:30.988Z,4.90
2018-05-19T11:00:58.640Z,4.70
2018-05-19T11:03:26.328Z,5.30
2018-05-19T11:05:54.767Z,5.37
2018-05-19T11:08:22.462Z,5.70
2018-05-19T11:10:50.131Z,4.67
2018-05-19T11:13:18.594Z,5.00
